Flight Track Log - Related Links

Times and Time Zones

All times are in EST time to prevent confusion due to time zone crossing. See the BJS339 flight status page for this flight to view local times or setup timezone preferences in your user account.

Time Position Orientation Groundspeed Altitude Reporting Facility
EST Latitude Longitude Course Direction KTS MPH feet Rate Location/Type
Wed 05:59:00 PM 28.0323 -112.1105 96° East  Level Estimated
Wed 06:00:00 PM 27.9972 -111.9837 107° East  Level FlightAware Approximate
Wed 06:01:00 PM 27.9621 -111.8570 107° East  Level FlightAware Approximate
Wed 06:02:00 PM 27.9268 -111.7304 107° East  Level FlightAware Approximate
Wed 06:03:00 PM 27.8914 -111.6038 108° East  Level FlightAware Approximate
Wed 06:04:00 PM 27.8559 -111.4774 108° East  Level FlightAware Approximate
Wed 06:05:00 PM 27.8203 -111.3510 108° East  Level FlightAware Approximate
Wed 06:06:00 PM 27.7845 -111.2247 108° East  Level FlightAware Approximate
Wed 06:07:00 PM 27.7487 -111.0985 108° East  Level FlightAware Approximate
Wed 06:08:00 PM 27.7127 -110.9724 108° East  Level FlightAware Approximate
Wed 06:09:00 PM 27.6767 -110.8464 108° East  Level FlightAware Approximate
Wed 06:09:51 PM 32.3114 -115.0469 108° East 404 465 17,500  Level Los Angeles Center
Wed 06:10:00 PM 27.6405 -110.7204 108° East  Level FlightAware Approximate
Wed 06:10:53 PM 32.4047 -115.1008 334° Northwest 393 452 15,700  Level Los Angeles Center
Wed 06:11:00 PM 27.6042 -110.5945 108° East  Level FlightAware Approximate
Wed 06:11:54 PM 32.4989 -115.1578 333° Northwest 380 437 14,700  Level Los Angeles Center
Wed 06:12:00 PM 27.5677 -110.4687 108° East  Level FlightAware Approximate
Wed 06:12:56 PM 32.6022 -115.1400 North 399 459 13,900  Level Los Angeles Center
Wed 06:13:00 PM 27.5312 -110.3430 108° East  Level FlightAware Approximate
Wed 06:13:58 PM 32.6436 -115.0236 67° East 393 452 13,900  Level Los Angeles Center
Wed 06:14:00 PM 27.4946 -110.2174 108° East  Level FlightAware Approximate
Wed 06:14:59 PM 32.6731 -114.9022 74° East 388 447 13,900  Level Los Angeles Center
Wed 06:15:00 PM 27.4578 -110.0919 108° East  Level FlightAware Approximate
Wed 06:16:08 PM 32.7189 -114.7611 69° East 350 403 11,900  Level Los Angeles Center
Wed 06:17:09 PM 32.7356 -114.6578 79° East 281 323 9,000 -2,690 Descending Los Angeles Center
Wed 06:18:04 PM 32.6900 -114.5978 132° Southeast 284 327 6,700 -2,600 Descending Los Angeles Center
Wed 06:18:09 PM 32.6861 -114.5900 121° Southeast 263 303 6,400 -2,455 Descending Los Angeles Center
Wed 06:19:10 PM 32.6847 -114.5272 91° East 227 261 4,000 -1,831 Descending Los Angeles Center
Wed 06:20:07 PM 32.6933 -114.5797 281° West 232 267 2,800 -1,008 Descending Los Angeles Center
Wed 06:21:09 PM 32.6561 -114.6286 228° Southwest 204 235 2,000 -1,024 Descending Los Angeles Center
Wed 06:22:10 PM 32.6258 -114.6442 203° Southwest 198 228 700 -927 Descending Los Angeles Center
Wed 06:23:12 PM 32.6483 -114.6150 48° Northeast 142 163 100 -581 Descending Los Angeles Center

Login

Don't have an account? Register now (free) for customized features, flight alerts, and more!